Salsacate, Argentina
Current Conditions -  °F | °C
As of 6:00 PM on Friday 31 Oct 2014 (Local Time) from SACO Reporting Station
Overcast Overcast  
Wind Chill: 59°   Ceiling: 2000
Heat Index: 59°   Visibility: 6mi
Dew Point: 45°   Wind: 17mph
Humidity: 59%   Direction: 200°SSW
Pressure: 30.06"   Gusts: NA
Location:  31.32°S, 65.08°W
Report Text: SACO 312100Z 20015KT 9999 SCT012 OVC020 15/07 Q1018
Loading
Personal Weather Stations






























Interactive Weather Map
Tropical Storm Tracking
New forecast layout! Learn more

10-Day Weather Forecast

Advertisements
Track Severe Weather on mobile